Terminal Aerodrome Forecast
Issued by NWS Shreveport, LA

Home | Current Version | Previous Version | Text Only | Print | Product List | Glossary On
Versions: 1 2 3 4 5 6 7 8 9 10 11 12 13
388
FTUS44 KSHV 260825 AAB
TAFSHV
TAF AMD
KSHV 260825Z 2608/2706 17012KT P6SM SCT020 BKN035
      TEMPO 2608/2612 BKN020
     FM261200 16012KT P6SM OVC010
     FM261500 17015G25KT P6SM OVC015
     FM261800 19017G27KT P6SM OVC025
     FM262000 21018G28KT P6SM VCTS OVC030CB
      TEMPO 2621/2701 VRB20G40KT 1SM +TSRA BR OVC015CB
     FM270100 32015G25KT P6SM OVC015=

USA.gov is the U.S. government's official web portal to all federal, state and local government web resources and services.